Marshlands, Pennsylvania
Current Conditions -  °F | °C
As of 11:15 PM on Sunday 25 Jan 2015 (Local Time) from KN38 Reporting Station
Overcast Overcast  
Wind Chill:   Ceiling: 3600
Heat Index: 14°   Visibility: 10mi
Dew Point:   Wind: 10mph
Humidity: 73%   Direction: 30°NNE
Pressure: 29.91"   Gusts: NA
Location:  41.6649°N, 77.5403°W
Report Text: KN38 260415Z AUTO 03009KT 10SM BKN036 OVC045 M10/M14 A2991 RMK AO2
Loading
Personal Weather Stations






























Interactive Weather Map New forecast layout! Learn more

10-Day Weather Forecast

Advertisements
Track Severe Weather on mobile